createdAt,value
2023-02-17T00:00:09.271Z,41.13
2023-02-17T00:02:37.758Z,42.70
2023-02-17T00:05:08.328Z,41.83
2023-02-17T00:07:37.034Z,42.40
2023-02-17T00:10:05.712Z,43.57
2023-02-17T00:12:34.268Z,43.43
2023-02-17T00:15:02.669Z,40.50
2023-02-17T00:17:31.057Z,47.97
2023-02-17T00:19:59.469Z,44.63
2023-02-17T00:22:29.362Z,39.43
2023-02-17T00:24:57.877Z,43.97
2023-02-17T00:27:26.312Z,42.07
2023-02-17T00:29:54.769Z,38.57
2023-02-17T00:32:23.237Z,41.13
2023-02-17T00:34:53.519Z,40.40
2023-02-17T00:37:21.955Z,42.47
2023-02-17T00:39:52.232Z,49.37
2023-02-17T00:42:20.917Z,47.53
2023-02-17T00:44:49.362Z,40.33
2023-02-17T00:47:17.702Z,44.47
2023-02-17T00:49:46.220Z,45.27
2023-02-17T00:52:14.597Z,44.70
2023-02-17T00:54:42.989Z,42.70
2023-02-17T00:57:12.853Z,39.57
2023-02-17T00:59:41.237Z,43.87
2023-02-17T01:02:10.144Z,47.03
2023-02-17T01:04:38.620Z,40.43
2023-02-17T01:07:07.023Z,40.30
2023-02-17T01:09:35.515Z,35.53
2023-02-17T01:12:03.940Z,36.20
2023-02-17T01:14:33.723Z,36.23
2023-02-17T01:17:02.113Z,40.43
2023-02-17T01:19:30.679Z,40.07
2023-02-17T01:21:59.072Z,39.00
2023-02-17T01:24:27.445Z,35.10
2023-02-17T01:26:55.905Z,41.27
2023-02-17T01:29:24.535Z,34.50
2023-02-17T01:31:54.621Z,39.90
2023-02-17T01:34:23.069Z,37.13
2023-02-17T01:36:51.620Z,35.80
2023-02-17T01:39:22.495Z,32.93
2023-02-17T01:41:50.999Z,34.23
2023-02-17T01:44:21.959Z,32.20
2023-02-17T01:46:51.488Z,34.77
2023-02-17T01:49:28.785Z,40.60
2023-02-17T01:52:02.147Z,35.63
2023-02-17T01:54:34.757Z,31.37
2023-02-17T01:57:04.143Z,35.67
2023-02-17T01:59:32.951Z,35.07
2023-02-17T02:02:05.305Z,38.23
2023-02-17T02:04:42.380Z,35.77
2023-02-17T02:07:15.691Z,36.30
2023-02-17T02:09:50.324Z,39.23
2023-02-17T02:12:21.162Z,40.93
2023-02-17T02:14:51.089Z,39.23
2023-02-17T02:17:30.624Z,38.73
2023-02-17T02:20:25.008Z,38.63
2023-02-17T02:23:14.674Z,33.87
2023-02-17T02:26:10.480Z,34.03
2023-02-17T02:28:55.024Z,31.80
2023-02-17T02:31:43.906Z,34.77
2023-02-17T02:34:22.102Z,37.20
2023-02-17T02:36:57.952Z,33.33
2023-02-17T02:39:31.250Z,34.93
2023-02-17T02:42:05.461Z,35.87
2023-02-17T02:44:33.959Z,36.70
2023-02-17T02:47:04.193Z,35.93
2023-02-17T02:49:36.995Z,38.57
2023-02-17T02:52:12.317Z,38.57
2023-02-17T02:54:54.028Z,33.37
2023-02-17T02:57:38.387Z,33.10
2023-02-17T03:00:17.504Z,35.47
2023-02-17T03:02:52.667Z,35.93
2023-02-17T03:05:29.842Z,32.67
2023-02-17T03:08:03.448Z,32.70
2023-02-17T03:10:32.278Z,33.47
2023-02-17T03:13:03.548Z,37.20
2023-02-17T03:15:34.954Z,33.33
2023-02-17T03:18:04.540Z,35.20
2023-02-17T03:20:38.971Z,34.63
2023-02-17T03:23:08.524Z,31.67
2023-02-17T03:25:37.282Z,36.33
2023-02-17T03:28:06.112Z,31.30
2023-02-17T03:30:34.711Z,31.20
2023-02-17T03:33:03.181Z,35.93
2023-02-17T03:35:31.599Z,34.23
2023-02-17T03:38:01.459Z,38.37
2023-02-17T03:40:29.876Z,33.17
2023-02-17T03:42:58.485Z,41.23
2023-02-17T03:45:27.282Z,39.63
2023-02-17T03:47:55.624Z,38.83
2023-02-17T03:50:24.124Z,35.27
2023-02-17T03:52:52.510Z,39.53
2023-02-17T03:55:22.348Z,35.40
2023-02-17T03:57:50.734Z,31.30
2023-02-17T04:00:19.672Z,32.60
2023-02-17T04:02:48.055Z,35.43
2023-02-17T04:05:16.519Z,36.67
2023-02-17T04:07:44.913Z,30.80
2023-02-17T04:10:13.376Z,38.27
2023-02-17T04:12:43.249Z,37.73
2023-02-17T04:15:11.717Z,34.60
2023-02-17T04:17:40.181Z,33.97
2023-02-17T04:20:09.542Z,35.50
2023-02-17T04:22:38.010Z,33.83
2023-02-17T04:25:06.799Z,34.80
2023-02-17T04:27:35.239Z,36.30
2023-02-17T04:30:05.604Z,37.10
2023-02-17T04:32:34.781Z,36.03
2023-02-17T04:35:03.267Z,34.07
2023-02-17T04:37:31.857Z,39.17
2023-02-17T04:40:00.323Z,34.37
2023-02-17T04:42:29.013Z,32.57
2023-02-17T04:44:57.426Z,33.37
2023-02-17T04:47:27.249Z,34.23
2023-02-17T04:49:55.798Z,32.27
2023-02-17T04:52:24.516Z,32.10
2023-02-17T04:54:53.239Z,36.27
2023-02-17T04:57:21.686Z,36.43
2023-02-17T04:59:50.107Z,37.87
2023-02-17T05:02:18.532Z,32.20
2023-02-17T05:04:48.728Z,31.87
2023-02-17T05:07:17.164Z,33.67
2023-02-17T05:09:45.540Z,38.27
2023-02-17T05:12:13.991Z,33.57
2023-02-17T05:14:42.385Z,36.63
2023-02-17T05:17:10.878Z,32.03
2023-02-17T05:19:39.439Z,34.17
2023-02-17T05:22:09.329Z,33.63
2023-02-17T05:24:38.935Z,32.93
2023-02-17T05:27:07.543Z,31.40
2023-02-17T05:29:36.332Z,32.53
2023-02-17T05:32:04.775Z,37.40
2023-02-17T05:34:33.552Z,36.33
2023-02-17T05:37:02.327Z,32.57
2023-02-17T05:39:32.403Z,33.10
2023-02-17T05:42:00.788Z,35.23
2023-02-17T05:44:29.554Z,33.40
2023-02-17T05:46:57.949Z,37.10
2023-02-17T05:49:26.426Z,32.00
2023-02-17T05:51:54.967Z,32.70
2023-02-17T05:54:23.835Z,37.83
2023-02-17T05:56:53.812Z,32.33
2023-02-17T05:59:22.198Z,35.83
2023-02-17T06:01:50.571Z,34.90
2023-02-17T06:04:19.101Z,30.73
2023-02-17T06:06:47.494Z,35.67
2023-02-17T06:09:15.980Z,34.03
2023-02-17T06:11:44.356Z,34.70
2023-02-17T06:14:14.238Z,33.77
2023-02-17T06:16:42.611Z,34.90
2023-02-17T06:19:11.061Z,34.90
2023-02-17T06:21:39.429Z,35.23
2023-02-17T06:24:08.033Z,32.87
2023-02-17T06:26:36.490Z,36.40
2023-02-17T06:29:05.078Z,33.37
2023-02-17T06:31:35.242Z,35.03
2023-02-17T06:34:06.354Z,34.70
2023-02-17T06:36:35.944Z,36.47
2023-02-17T06:39:04.639Z,34.10
2023-02-17T06:41:33.138Z,36.07
2023-02-17T06:44:01.524Z,38.43
2023-02-17T06:46:29.946Z,31.70
2023-02-17T06:49:00.352Z,38.13
2023-02-17T06:51:29.146Z,37.97
2023-02-17T06:53:57.811Z,38.00
2023-02-17T06:56:26.318Z,33.17
2023-02-17T06:58:54.701Z,42.20
2023-02-17T07:01:26.279Z,39.23
2023-02-17T07:03:55.335Z,40.33
2023-02-17T07:06:26.144Z,41.07
2023-02-17T07:08:54.820Z,39.73
2023-02-17T07:11:24.173Z,38.17
2023-02-17T07:13:52.636Z,36.03
2023-02-17T07:16:21.035Z,39.87
2023-02-17T07:18:49.466Z,43.90
2023-02-17T07:21:18.229Z,41.00
2023-02-17T07:23:48.640Z,41.03
2023-02-17T07:26:17.677Z,39.73
2023-02-17T07:28:46.194Z,39.67
2023-02-17T07:31:16.731Z,38.27
2023-02-17T07:33:48.228Z,37.80
2023-02-17T07:36:18.682Z,37.10
2023-02-17T07:38:48.518Z,35.10
2023-02-17T07:41:18.551Z,36.03
2023-02-17T07:43:47.827Z,37.77
2023-02-17T07:46:16.965Z,38.53
2023-02-17T07:48:45.341Z,38.37
2023-02-17T07:51:15.368Z,41.30
2023-02-17T07:53:43.774Z,37.40
2023-02-17T07:56:16.397Z,39.50
2023-02-17T07:58:46.239Z,37.83
2023-02-17T08:01:17.339Z,38.43
2023-02-17T08:03:46.106Z,38.40
2023-02-17T08:06:16.452Z,38.83
2023-02-17T08:09:02.814Z,41.50
2023-02-17T08:11:50.047Z,35.87
2023-02-17T08:14:19.501Z,39.20
2023-02-17T08:16:47.893Z,34.33
2023-02-17T08:19:16.426Z,36.07
2023-02-17T08:21:45.166Z,33.13
2023-02-17T08:24:14.126Z,33.73
2023-02-17T08:26:44.161Z,34.10
2023-02-17T08:29:12.939Z,30.23
2023-02-17T08:31:41.447Z,37.47
2023-02-17T08:34:13.286Z,32.00
2023-02-17T08:36:41.943Z,35.50
2023-02-17T08:39:14.450Z,35.87
2023-02-17T08:41:44.793Z,34.03
2023-02-17T08:44:15.115Z,32.90
2023-02-17T08:46:44.744Z,35.47
2023-02-17T08:49:13.771Z,33.77
2023-02-17T08:51:42.374Z,33.77
2023-02-17T08:54:12.753Z,35.27
2023-02-17T08:56:43.877Z,36.23
2023-02-17T08:59:13.096Z,36.13
2023-02-17T09:01:42.504Z,34.53
2023-02-17T09:04:14.099Z,34.30
2023-02-17T09:06:44.442Z,35.07
2023-02-17T09:09:15.571Z,29.83
2023-02-17T09:11:45.690Z,37.47
2023-02-17T09:14:14.248Z,31.73
2023-02-17T09:16:42.753Z,32.50
2023-02-17T09:19:11.229Z,30.30
2023-02-17T09:21:39.631Z,32.03
2023-02-17T09:24:08.412Z,29.20
2023-02-17T09:26:36.978Z,31.83
2023-02-17T09:29:07.704Z,29.77
2023-02-17T09:31:37.256Z,29.60
2023-02-17T09:34:06.650Z,28.57
2023-02-17T09:36:39.587Z,27.87
2023-02-17T09:39:08.053Z,28.00
2023-02-17T09:41:40.976Z,34.23
2023-02-17T09:44:20.982Z,30.43
2023-02-17T09:47:02.196Z,28.10
2023-02-17T09:49:37.998Z,29.50
2023-02-17T09:52:13.496Z,28.43
2023-02-17T09:54:51.265Z,28.43
2023-02-17T09:57:21.503Z,28.97
2023-02-17T09:59:56.121Z,34.50
2023-02-17T10:02:32.767Z,29.40
2023-02-17T10:05:07.302Z,25.73
2023-02-17T10:07:41.020Z,27.50
2023-02-17T10:10:13.146Z,29.13
2023-02-17T10:12:47.774Z,32.47
2023-02-17T10:15:21.028Z,25.40
2023-02-17T10:17:55.350Z,30.93
2023-02-17T10:20:27.312Z,24.10
2023-02-17T10:23:01.678Z,21.50
2023-02-17T10:25:48.633Z,24.53
2023-02-17T10:28:23.733Z,24.93
2023-02-17T10:31:03.418Z,26.83
2023-02-17T10:33:38.232Z,27.03
2023-02-17T10:36:19.459Z,27.73
2023-02-17T10:38:52.489Z,48.20
2023-02-17T10:41:24.211Z,30.10
2023-02-17T10:43:53.153Z,29.00
2023-02-17T10:46:29.542Z,37.07
2023-02-17T10:49:00.554Z,41.10
2023-02-17T10:51:31.301Z,45.13
2023-02-17T10:54:04.136Z,32.50
2023-02-17T10:56:38.600Z,25.90
2023-02-17T10:59:13.498Z,32.03
2023-02-17T11:01:43.314Z,25.03
2023-02-17T11:04:14.345Z,25.63
2023-02-17T11:06:45.759Z,24.03
2023-02-17T11:09:23.621Z,21.90
2023-02-17T11:12:00.022Z,23.10
2023-02-17T11:14:31.331Z,20.33
2023-02-17T11:17:04.512Z,18.97
2023-02-17T11:19:35.360Z,19.50
2023-02-17T11:22:05.864Z,19.20
2023-02-17T11:24:36.390Z,17.10
2023-02-17T11:27:09.788Z,17.83
2023-02-17T11:29:38.615Z,17.97
2023-02-17T11:32:12.644Z,18.40
2023-02-17T11:34:43.746Z,16.67
2023-02-17T11:37:24.010Z,16.50
2023-02-17T11:39:54.798Z,15.60
2023-02-17T11:42:24.318Z,15.30
2023-02-17T11:44:53.513Z,14.23
2023-02-17T11:47:34.722Z,14.20
2023-02-17T11:50:38.944Z,13.77
2023-02-17T11:53:20.155Z,12.17
2023-02-17T11:56:00.490Z,12.60
2023-02-17T11:58:52.915Z,12.67
2023-02-17T12:01:40.843Z,10.90
2023-02-17T12:04:29.476Z,11.00
2023-02-17T12:07:21.701Z,11.97
2023-02-17T12:09:57.478Z,8.80
2023-02-17T12:12:37.026Z,9.30
2023-02-17T12:15:21.705Z,11.87
2023-02-17T12:17:57.519Z,8.97
2023-02-17T12:20:41.821Z,8.70
2023-02-17T12:23:24.906Z,7.73
2023-02-17T12:25:59.751Z,9.43
2023-02-17T12:28:57.185Z,10.40
2023-02-17T12:31:44.045Z,8.23
2023-02-17T12:34:22.994Z,9.53
2023-02-17T12:36:53.483Z,6.90
2023-02-17T12:39:25.483Z,9.67
2023-02-17T12:41:59.984Z,9.07
2023-02-17T12:44:32.011Z,9.80
2023-02-17T12:47:06.450Z,9.43
2023-02-17T12:49:41.738Z,9.63
2023-02-17T12:52:18.357Z,10.73
2023-02-17T12:54:53.032Z,19.67
2023-02-17T12:57:25.562Z,10.20
2023-02-17T12:59:54.971Z,12.40
2023-02-17T13:02:25.968Z,11.13
2023-02-17T13:04:56.397Z,9.73
2023-02-17T13:07:39.679Z,15.83
2023-02-17T13:10:19.674Z,11.60
2023-02-17T13:13:00.665Z,13.57
2023-02-17T13:15:39.230Z,14.67
2023-02-17T13:18:13.250Z,14.63
2023-02-17T13:20:55.162Z,12.10
2023-02-17T13:23:35.413Z,14.23
2023-02-17T13:26:25.746Z,13.13
2023-02-17T13:28:55.888Z,16.50
2023-02-17T13:31:26.805Z,15.43
2023-02-17T13:33:57.031Z,17.90
2023-02-17T13:36:37.342Z,15.13
2023-02-17T13:39:37.840Z,18.67
2023-02-17T13:42:26.557Z,16.73
2023-02-17T13:44:54.938Z,15.17
2023-02-17T13:47:30.696Z,15.07
2023-02-17T13:49:59.130Z,16.87
2023-02-17T13:52:29.610Z,17.57
2023-02-17T13:55:01.163Z,16.07
2023-02-17T13:57:31.563Z,16.10
2023-02-17T14:00:11.803Z,15.50
2023-02-17T14:02:47.189Z,14.63
2023-02-17T14:05:21.147Z,13.83
2023-02-17T14:07:50.631Z,14.33
2023-02-17T14:10:23.916Z,13.23
2023-02-17T14:12:52.854Z,13.20
2023-02-17T14:15:23.794Z,15.17
2023-02-17T14:17:52.279Z,15.37
2023-02-17T14:20:32.900Z,18.67
2023-02-17T14:23:06.407Z,15.10
2023-02-17T14:25:38.312Z,17.60
2023-02-17T14:28:19.761Z,14.17
2023-02-17T14:30:48.853Z,18.87
2023-02-17T14:33:23.419Z,20.33
2023-02-17T14:35:54.258Z,22.70
2023-02-17T14:38:24.830Z,14.87
2023-02-17T14:40:56.158Z,15.10
2023-02-17T14:43:25.092Z,17.50
2023-02-17T14:45:53.712Z,20.37
2023-02-17T14:48:22.425Z,15.27
2023-02-17T14:50:51.153Z,19.70
2023-02-17T14:53:25.189Z,16.57
2023-02-17T14:56:00.689Z,22.60
2023-02-17T14:58:30.458Z,17.37
2023-02-17T15:00:59.553Z,15.23
2023-02-17T15:03:27.941Z,12.93
2023-02-17T15:05:57.034Z,15.93
2023-02-17T15:08:32.281Z,13.43
2023-02-17T15:11:02.590Z,27.70
2023-02-17T15:13:32.242Z,79.43
2023-02-17T15:16:01.039Z,110.23
2023-02-17T15:18:29.584Z,84.60
2023-02-17T15:20:58.645Z,30.30
2023-02-17T15:23:27.417Z,19.77
2023-02-17T15:25:57.375Z,11.50
2023-02-17T15:28:27.155Z,12.80
2023-02-17T15:30:57.277Z,13.77
2023-02-17T15:33:26.211Z,20.60
2023-02-17T15:35:55.851Z,7.47
2023-02-17T15:38:27.401Z,13.47
2023-02-17T15:40:58.737Z,9.77
2023-02-17T15:46:15.325Z,7.30
2023-02-17T15:48:45.050Z,8.60
2023-02-17T15:51:15.158Z,10.27
2023-02-17T15:53:43.988Z,9.53
2023-02-17T15:56:20.481Z,9.67
2023-02-17T15:58:52.168Z,7.40
2023-02-17T16:01:28.880Z,9.23
2023-02-17T16:03:58.108Z,8.03
2023-02-17T16:06:26.896Z,8.53
2023-02-17T16:08:55.794Z,7.23
2023-02-17T16:11:25.036Z,8.33
2023-02-17T16:13:55.056Z,8.60
2023-02-17T16:16:25.611Z,6.93
2023-02-17T16:18:54.389Z,7.30
2023-02-17T16:21:22.906Z,6.50
2023-02-17T16:23:52.798Z,14.03
2023-02-17T16:26:27.220Z,381.13
2023-02-17T16:28:57.256Z,201.97
2023-02-17T16:31:26.210Z,486.30
2023-02-17T16:34:00.520Z,158.97
2023-02-17T16:36:33.710Z,217.63
2023-02-17T16:39:08.002Z,284.43
2023-02-17T16:41:36.348Z,254.33
2023-02-17T16:44:07.620Z,110.60
2023-02-17T16:46:38.585Z,95.57
2023-02-17T16:49:20.314Z,52.30
2023-02-17T16:51:49.035Z,19.47
2023-02-17T16:54:19.100Z,15.10
2023-02-17T16:56:50.113Z,11.07
2023-02-17T16:59:23.547Z,8.33
2023-02-17T17:01:53.584Z,9.37
2023-02-17T17:04:22.587Z,8.13
2023-02-17T17:06:53.176Z,7.13
2023-02-17T17:09:23.273Z,6.97
2023-02-17T17:11:51.952Z,7.77
2023-02-17T17:14:22.057Z,7.90
2023-02-17T17:16:55.186Z,6.80
2023-02-17T17:19:23.683Z,12.17
2023-02-17T17:21:52.440Z,8.30
2023-02-17T17:24:21.194Z,7.60
2023-02-17T17:26:51.748Z,7.73
2023-02-17T17:29:22.058Z,9.10
2023-02-17T17:31:51.011Z,7.23
2023-02-17T17:34:19.585Z,8.40
2023-02-17T17:36:49.672Z,8.90
2023-02-17T17:39:19.999Z,8.70
2023-02-17T17:41:49.579Z,8.40
2023-02-17T17:44:18.499Z,8.97
2023-02-17T17:46:48.372Z,9.67
2023-02-17T17:49:18.593Z,9.23
2023-02-17T17:51:47.302Z,10.73
2023-02-17T17:54:15.726Z,11.90
2023-02-17T17:56:44.974Z,11.63
2023-02-17T17:59:14.759Z,10.20
2023-02-17T18:01:45.605Z,8.67
2023-02-17T18:04:15.841Z,12.10
2023-02-17T18:06:47.191Z,11.47
2023-02-17T18:09:31.352Z,9.87
2023-02-17T18:12:03.197Z,10.57
2023-02-17T18:14:32.184Z,13.00
2023-02-17T18:17:00.700Z,12.03
2023-02-17T18:19:31.079Z,11.03
2023-02-17T18:21:59.566Z,13.00
2023-02-17T18:24:28.439Z,9.73
2023-02-17T18:26:56.965Z,17.03
2023-02-17T18:29:25.623Z,13.83
2023-02-17T18:31:54.793Z,13.80
2023-02-17T18:34:23.294Z,9.53
2023-02-17T18:36:53.190Z,10.83
2023-02-17T18:39:21.644Z,11.50
2023-02-17T18:41:50.064Z,9.60
2023-02-17T18:44:18.723Z,14.80
2023-02-17T18:46:47.098Z,7.93
2023-02-17T18:49:15.465Z,8.97
2023-02-17T18:51:43.884Z,7.83
2023-02-17T18:54:14.281Z,7.40
2023-02-17T18:56:42.874Z,9.83
2023-02-17T18:59:11.289Z,11.17
2023-02-17T19:01:41.104Z,7.80
2023-02-17T19:04:12.012Z,8.87
2023-02-17T19:06:40.730Z,7.67
2023-02-17T19:09:09.150Z,7.40
2023-02-17T19:11:39.431Z,7.83
2023-02-17T19:14:07.813Z,7.23
2023-02-17T19:16:36.263Z,19.33
2023-02-17T19:19:04.940Z,58.47
2023-02-17T19:21:36.201Z,60.20
2023-02-17T19:24:05.094Z,40.00
2023-02-17T19:26:34.378Z,24.50
2023-02-17T19:29:04.334Z,10.67
2023-02-17T19:31:32.970Z,9.37
2023-02-17T19:34:01.443Z,6.77
2023-02-17T19:36:29.840Z,8.73
2023-02-17T19:38:59.195Z,19.27
2023-02-17T19:41:27.587Z,28.03
2023-02-17T19:43:56.051Z,16.87
2023-02-17T19:46:25.994Z,14.97
2023-02-17T19:48:54.562Z,7.63
2023-02-17T19:51:23.345Z,4.60
2023-02-17T19:53:51.878Z,2.70
2023-02-17T19:56:22.712Z,2.77
2023-02-17T19:58:51.772Z,9.37
2023-02-17T20:01:22.187Z,10.30
2023-02-17T20:03:52.483Z,11.17
2023-02-17T20:06:23.717Z,3.90
2023-02-17T20:08:55.098Z,15.17
2023-02-17T20:11:24.112Z,13.43
2023-02-17T20:13:52.826Z,4.07
2023-02-17T20:16:21.456Z,2.20
2023-02-17T20:18:52.097Z,3.53
2023-02-17T20:21:22.859Z,9.17
2023-02-17T20:23:51.657Z,5.33
2023-02-17T20:26:22.892Z,14.37
2023-02-17T20:28:51.725Z,8.50
2023-02-17T23:18:53.193Z,2.33
2023-02-17T23:21:21.565Z,5.60
2023-02-17T23:23:50.211Z,1.97
2023-02-17T23:26:18.641Z,3.40
2023-02-17T23:28:47.431Z,0.80
2023-02-17T23:31:16.542Z,0.83
2023-02-17T23:33:44.990Z,1.37
2023-02-17T23:36:15.462Z,3.33
2023-02-17T23:38:43.855Z,1.73
2023-02-17T23:41:12.684Z,2.53
2023-02-17T23:43:41.560Z,5.67
2023-02-17T23:46:10.339Z,1.30
2023-02-17T23:48:38.942Z,1.40
2023-02-17T23:51:07.502Z,2.73
2023-02-17T23:53:37.346Z,5.83
2023-02-17T23:56:08.195Z,22.93
2023-02-17T23:58:37.205Z,4.20
